sensor_id;sensor_type;location;lat;lon;timestamp;P1;durP1;ratioP1;P2;durP2;ratioP2
142;SDS011;63667;49.046;8.468;2024-02-28T00:01:26;56.73;;;24.67;;
142;SDS011;63667;49.046;8.468;2024-02-28T00:03:53;64.47;;;25.60;;
142;SDS011;63667;49.046;8.468;2024-02-28T00:06:20;60.17;;;25.87;;
142;SDS011;63667;49.046;8.468;2024-02-28T00:08:48;60.17;;;25.70;;
142;SDS011;63667;49.046;8.468;2024-02-28T00:11:16;65.50;;;26.07;;
142;SDS011;63667;49.046;8.468;2024-02-28T00:13:45;62.47;;;26.13;;
142;SDS011;63667;49.046;8.468;2024-02-28T00:16:12;64.30;;;27.50;;
142;SDS011;63667;49.046;8.468;2024-02-28T00:18:40;73.80;;;27.43;;
142;SDS011;63667;49.046;8.468;2024-02-28T00:21:08;67.17;;;26.80;;
142;SDS011;63667;49.046;8.468;2024-02-28T00:23:36;69.60;;;27.70;;
142;SDS011;63667;49.046;8.468;2024-02-28T00:26:03;63.27;;;27.63;;
142;SDS011;63667;49.046;8.468;2024-02-28T00:28:31;73.17;;;27.80;;
142;SDS011;63667;49.046;8.468;2024-02-28T00:30:58;80.30;;;29.00;;
142;SDS011;63667;49.046;8.468;2024-02-28T00:33:27;64.90;;;27.30;;
142;SDS011;63667;49.046;8.468;2024-02-28T00:35:54;80.77;;;28.80;;
142;SDS011;63667;49.046;8.468;2024-02-28T00:38:22;66.10;;;27.37;;
142;SDS011;63667;49.046;8.468;2024-02-28T00:40:49;75.77;;;27.60;;
142;SDS011;63667;49.046;8.468;2024-02-28T00:43:17;75.70;;;28.13;;
142;SDS011;63667;49.046;8.468;2024-02-28T00:45:44;71.40;;;28.30;;
142;SDS011;63667;49.046;8.468;2024-02-28T00:48:11;71.47;;;28.97;;
142;SDS011;63667;49.046;8.468;2024-02-28T00:50:39;70.27;;;27.40;;
142;SDS011;63667;49.046;8.468;2024-02-28T00:53:07;67.90;;;27.67;;
142;SDS011;63667;49.046;8.468;2024-02-28T00:55:34;73.93;;;27.80;;
142;SDS011;63667;49.046;8.468;2024-02-28T00:58:02;65.43;;;27.20;;
142;SDS011;63667;49.046;8.468;2024-02-28T01:00:29;69.63;;;28.03;;
142;SDS011;63667;49.046;8.468;2024-02-28T01:02:57;67.07;;;27.27;;
142;SDS011;63667;49.046;8.468;2024-02-28T01:05:24;74.23;;;27.70;;
142;SDS011;63667;49.046;8.468;2024-02-28T01:07:52;64.70;;;26.50;;
142;SDS011;63667;49.046;8.468;2024-02-28T01:10:20;76.87;;;29.33;;
142;SDS011;63667;49.046;8.468;2024-02-28T01:12:47;66.53;;;27.70;;
142;SDS011;63667;49.046;8.468;2024-02-28T01:15:14;70.33;;;27.07;;
142;SDS011;63667;49.046;8.468;2024-02-28T01:17:43;80.43;;;27.93;;
142;SDS011;63667;49.046;8.468;2024-02-28T01:20:10;69.67;;;27.13;;
142;SDS011;63667;49.046;8.468;2024-02-28T01:22:40;67.67;;;27.50;;
142;SDS011;63667;49.046;8.468;2024-02-28T01:25:07;79.77;;;28.50;;
142;SDS011;63667;49.046;8.468;2024-02-28T01:27:36;78.77;;;28.93;;
142;SDS011;63667;49.046;8.468;2024-02-28T01:30:03;66.57;;;28.27;;
142;SDS011;63667;49.046;8.468;2024-02-28T01:32:33;67.37;;;27.30;;
142;SDS011;63667;49.046;8.468;2024-02-28T01:35:01;72.23;;;28.17;;
142;SDS011;63667;49.046;8.468;2024-02-28T01:37:29;79.07;;;30.10;;
142;SDS011;63667;49.046;8.468;2024-02-28T01:39:57;76.47;;;29.00;;
142;SDS011;63667;49.046;8.468;2024-02-28T01:42:26;80.80;;;29.10;;
142;SDS011;63667;49.046;8.468;2024-02-28T01:44:53;81.17;;;28.50;;
142;SDS011;63667;49.046;8.468;2024-02-28T01:47:21;92.23;;;29.23;;
142;SDS011;63667;49.046;8.468;2024-02-28T01:49:49;91.43;;;28.63;;
142;SDS011;63667;49.046;8.468;2024-02-28T01:52:16;72.80;;;28.60;;
142;SDS011;63667;49.046;8.468;2024-02-28T01:54:44;101.57;;;30.73;;
142;SDS011;63667;49.046;8.468;2024-02-28T01:57:11;70.73;;;27.63;;
142;SDS011;63667;49.046;8.468;2024-02-28T01:59:39;75.97;;;28.33;;
142;SDS011;63667;49.046;8.468;2024-02-28T02:02:08;90.97;;;29.00;;
142;SDS011;63667;49.046;8.468;2024-02-28T02:04:35;78.83;;;27.90;;
142;SDS011;63667;49.046;8.468;2024-02-28T02:07:02;88.83;;;28.97;;
142;SDS011;63667;49.046;8.468;2024-02-28T02:09:29;73.20;;;28.20;;
142;SDS011;63667;49.046;8.468;2024-02-28T02:11:57;66.00;;;26.73;;
142;SDS011;63667;49.046;8.468;2024-02-28T02:14:25;65.53;;;25.50;;
142;SDS011;63667;49.046;8.468;2024-02-28T02:16:52;69.17;;;25.30;;
142;SDS011;63667;49.046;8.468;2024-02-28T02:19:20;72.30;;;26.70;;
142;SDS011;63667;49.046;8.468;2024-02-28T02:21:52;67.53;;;25.40;;
142;SDS011;63667;49.046;8.468;2024-02-28T02:24:20;73.53;;;26.63;;
142;SDS011;63667;49.046;8.468;2024-02-28T02:26:47;66.27;;;25.47;;
142;SDS011;63667;49.046;8.468;2024-02-28T02:29:18;62.43;;;25.07;;
142;SDS011;63667;49.046;8.468;2024-02-28T02:31:46;63.77;;;25.13;;
142;SDS011;63667;49.046;8.468;2024-02-28T02:34:14;67.80;;;26.37;;
142;SDS011;63667;49.046;8.468;2024-02-28T02:36:41;73.40;;;27.83;;
142;SDS011;63667;49.046;8.468;2024-02-28T02:39:09;85.80;;;30.70;;
142;SDS011;63667;49.046;8.468;2024-02-28T02:41:37;97.57;;;31.50;;
142;SDS011;63667;49.046;8.468;2024-02-28T02:44:07;86.07;;;30.07;;
142;SDS011;63667;49.046;8.468;2024-02-28T02:46:34;87.93;;;31.57;;
142;SDS011;63667;49.046;8.468;2024-02-28T02:49:03;78.80;;;28.27;;
142;SDS011;63667;49.046;8.468;2024-02-28T02:51:30;76.03;;;28.77;;
142;SDS011;63667;49.046;8.468;2024-02-28T02:53:58;68.23;;;26.80;;
142;SDS011;63667;49.046;8.468;2024-02-28T02:56:26;76.77;;;26.73;;
142;SDS011;63667;49.046;8.468;2024-02-28T02:58:53;75.93;;;27.57;;
142;SDS011;63667;49.046;8.468;2024-02-28T03:01:22;74.60;;;25.87;;
142;SDS011;63667;49.046;8.468;2024-02-28T03:03:49;74.97;;;26.23;;
142;SDS011;63667;49.046;8.468;2024-02-28T03:06:17;64.13;;;25.37;;
142;SDS011;63667;49.046;8.468;2024-02-28T03:08:45;65.77;;;26.40;;
142;SDS011;63667;49.046;8.468;2024-02-28T03:11:13;59.23;;;24.27;;
142;SDS011;63667;49.046;8.468;2024-02-28T03:13:41;65.10;;;25.20;;
142;SDS011;63667;49.046;8.468;2024-02-28T03:16:08;64.47;;;25.23;;
142;SDS011;63667;49.046;8.468;2024-02-28T03:18:37;63.83;;;24.90;;
142;SDS011;63667;49.046;8.468;2024-02-28T03:21:04;71.50;;;26.30;;
142;SDS011;63667;49.046;8.468;2024-02-28T03:23:32;61.57;;;24.00;;
142;SDS011;63667;49.046;8.468;2024-02-28T03:26:02;63.20;;;22.77;;
142;SDS011;63667;49.046;8.468;2024-02-28T03:28:29;65.40;;;25.80;;
142;SDS011;63667;49.046;8.468;2024-02-28T03:30:57;63.50;;;24.43;;
142;SDS011;63667;49.046;8.468;2024-02-28T03:33:24;60.27;;;24.23;;
142;SDS011;63667;49.046;8.468;2024-02-28T03:35:51;70.37;;;24.10;;
142;SDS011;63667;49.046;8.468;2024-02-28T03:38:19;68.40;;;25.30;;
142;SDS011;63667;49.046;8.468;2024-02-28T03:40:45;71.30;;;25.10;;
142;SDS011;63667;49.046;8.468;2024-02-28T03:43:14;62.83;;;25.53;;
142;SDS011;63667;49.046;8.468;2024-02-28T03:45:41;68.27;;;25.27;;
142;SDS011;63667;49.046;8.468;2024-02-28T03:48:09;67.03;;;25.83;;
142;SDS011;63667;49.046;8.468;2024-02-28T03:50:36;76.17;;;24.93;;
142;SDS011;63667;49.046;8.468;2024-02-28T03:53:04;75.97;;;25.57;;
142;SDS011;63667;49.046;8.468;2024-02-28T03:55:32;71.47;;;26.13;;
142;SDS011;63667;49.046;8.468;2024-02-28T03:57:58;90.40;;;28.20;;
142;SDS011;63667;49.046;8.468;2024-02-28T04:00:27;93.77;;;29.63;;
142;SDS011;63667;49.046;8.468;2024-02-28T04:02:54;86.03;;;28.20;;
142;SDS011;63667;49.046;8.468;2024-02-28T04:05:21;98.23;;;30.40;;
142;SDS011;63667;49.046;8.468;2024-02-28T04:07:49;101.23;;;32.50;;
142;SDS011;63667;49.046;8.468;2024-02-28T04:10:16;108.50;;;31.87;;
142;SDS011;63667;49.046;8.468;2024-02-28T04:12:44;95.00;;;29.87;;
142;SDS011;63667;49.046;8.468;2024-02-28T04:15:13;94.97;;;30.43;;
142;SDS011;63667;49.046;8.468;2024-02-28T04:17:40;92.97;;;31.37;;
142;SDS011;63667;49.046;8.468;2024-02-28T04:20:08;94.40;;;29.50;;
142;SDS011;63667;49.046;8.468;2024-02-28T04:22:36;92.53;;;29.90;;
142;SDS011;63667;49.046;8.468;2024-02-28T04:25:04;86.10;;;29.37;;
142;SDS011;63667;49.046;8.468;2024-02-28T04:27:34;83.20;;;29.87;;
142;SDS011;63667;49.046;8.468;2024-02-28T04:30:00;85.47;;;28.20;;
142;SDS011;63667;49.046;8.468;2024-02-28T04:32:28;87.73;;;27.83;;
142;SDS011;63667;49.046;8.468;2024-02-28T04:34:55;88.40;;;28.03;;
142;SDS011;63667;49.046;8.468;2024-02-28T04:37:23;93.73;;;30.03;;
142;SDS011;63667;49.046;8.468;2024-02-28T04:39:50;116.13;;;31.67;;
142;SDS011;63667;49.046;8.468;2024-02-28T04:42:17;117.37;;;32.60;;
142;SDS011;63667;49.046;8.468;2024-02-28T04:44:43;105.43;;;30.80;;
142;SDS011;63667;49.046;8.468;2024-02-28T04:47:11;96.53;;;31.67;;
142;SDS011;63667;49.046;8.468;2024-02-28T04:49:39;106.30;;;31.80;;
142;SDS011;63667;49.046;8.468;2024-02-28T04:52:07;103.77;;;31.13;;
142;SDS011;63667;49.046;8.468;2024-02-28T04:54:34;108.07;;;31.67;;
142;SDS011;63667;49.046;8.468;2024-02-28T04:57:02;97.93;;;30.90;;
142;SDS011;63667;49.046;8.468;2024-02-28T04:59:30;89.00;;;28.27;;
142;SDS011;63667;49.046;8.468;2024-02-28T05:01:58;93.80;;;29.50;;
142;SDS011;63667;49.046;8.468;2024-02-28T05:04:24;86.83;;;28.57;;
142;SDS011;63667;49.046;8.468;2024-02-28T05:06:52;98.13;;;30.97;;
142;SDS011;63667;49.046;8.468;2024-02-28T05:09:20;98.70;;;29.97;;
142;SDS011;63667;49.046;8.468;2024-02-28T05:11:47;81.60;;;29.83;;
142;SDS011;63667;49.046;8.468;2024-02-28T05:14:13;93.40;;;30.00;;
142;SDS011;63667;49.046;8.468;2024-02-28T05:16:40;95.70;;;32.07;;
142;SDS011;63667;49.046;8.468;2024-02-28T05:19:08;79.57;;;27.60;;
142;SDS011;63667;49.046;8.468;2024-02-28T05:21:42;68.50;;;26.77;;
142;SDS011;63667;49.046;8.468;2024-02-28T05:24:08;72.20;;;27.00;;
142;SDS011;63667;49.046;8.468;2024-02-28T05:26:35;82.93;;;28.10;;
142;SDS011;63667;49.046;8.468;2024-02-28T05:29:02;82.27;;;26.80;;
142;SDS011;63667;49.046;8.468;2024-02-28T05:31:29;79.37;;;26.60;;
142;SDS011;63667;49.046;8.468;2024-02-28T05:33:57;86.53;;;28.77;;
142;SDS011;63667;49.046;8.468;2024-02-28T05:36:30;86.33;;;28.67;;
142;SDS011;63667;49.046;8.468;2024-02-28T05:38:57;92.50;;;30.00;;
142;SDS011;63667;49.046;8.468;2024-02-28T05:41:24;100.13;;;33.00;;
142;SDS011;63667;49.046;8.468;2024-02-28T05:43:51;115.60;;;35.07;;
142;SDS011;63667;49.046;8.468;2024-02-28T05:46:18;107.70;;;33.70;;
142;SDS011;63667;49.046;8.468;2024-02-28T05:48:44;107.13;;;32.70;;
142;SDS011;63667;49.046;8.468;2024-02-28T05:51:12;106.60;;;34.27;;
142;SDS011;63667;49.046;8.468;2024-02-28T05:53:38;102.67;;;33.27;;
142;SDS011;63667;49.046;8.468;2024-02-28T05:56:06;122.10;;;35.20;;
142;SDS011;63667;49.046;8.468;2024-02-28T05:58:40;125.63;;;38.10;;
142;SDS011;63667;49.046;8.468;2024-02-28T06:01:08;122.13;;;37.27;;
142;SDS011;63667;49.046;8.468;2024-02-28T06:03:36;117.93;;;35.97;;
142;SDS011;63667;49.046;8.468;2024-02-28T06:06:04;119.60;;;35.37;;
142;SDS011;63667;49.046;8.468;2024-02-28T06:08:35;110.47;;;34.50;;
142;SDS011;63667;49.046;8.468;2024-02-28T06:11:04;105.63;;;32.90;;
142;SDS011;63667;49.046;8.468;2024-02-28T06:13:32;104.90;;;33.37;;
142;SDS011;63667;49.046;8.468;2024-02-28T06:16:00;116.33;;;33.77;;
142;SDS011;63667;49.046;8.468;2024-02-28T06:18:27;107.67;;;32.30;;
142;SDS011;63667;49.046;8.468;2024-02-28T06:20:59;124.50;;;34.13;;
142;SDS011;63667;49.046;8.468;2024-02-28T06:23:26;134.60;;;34.60;;
142;SDS011;63667;49.046;8.468;2024-02-28T06:25:54;138.50;;;36.83;;
142;SDS011;63667;49.046;8.468;2024-02-28T06:28:22;136.27;;;35.97;;
142;SDS011;63667;49.046;8.468;2024-02-28T06:30:48;148.13;;;36.50;;
142;SDS011;63667;49.046;8.468;2024-02-28T06:33:15;133.77;;;36.97;;
142;SDS011;63667;49.046;8.468;2024-02-28T06:35:44;148.93;;;36.13;;
142;SDS011;63667;49.046;8.468;2024-02-28T06:38:11;149.60;;;37.13;;
142;SDS011;63667;49.046;8.468;2024-02-28T06:40:39;162.50;;;39.23;;
142;SDS011;63667;49.046;8.468;2024-02-28T06:43:07;153.00;;;36.90;;
142;SDS011;63667;49.046;8.468;2024-02-28T06:45:34;128.30;;;35.37;;
142;SDS011;63667;49.046;8.468;2024-02-28T06:48:02;136.47;;;37.10;;
142;SDS011;63667;49.046;8.468;2024-02-28T06:50:31;137.90;;;37.73;;
142;SDS011;63667;49.046;8.468;2024-02-28T06:52:57;139.90;;;36.83;;
142;SDS011;63667;49.046;8.468;2024-02-28T06:55:25;130.33;;;36.63;;
142;SDS011;63667;49.046;8.468;2024-02-28T06:57:53;114.07;;;34.70;;
142;SDS011;63667;49.046;8.468;2024-02-28T07:00:20;118.87;;;34.57;;
142;SDS011;63667;49.046;8.468;2024-02-28T07:02:48;134.77;;;37.97;;
142;SDS011;63667;49.046;8.468;2024-02-28T07:05:16;107.30;;;33.53;;
142;SDS011;63667;49.046;8.468;2024-02-28T07:07:43;103.03;;;33.57;;
142;SDS011;63667;49.046;8.468;2024-02-28T07:10:10;100.07;;;32.93;;
142;SDS011;63667;49.046;8.468;2024-02-28T07:12:39;99.83;;;33.13;;
142;SDS011;63667;49.046;8.468;2024-02-28T07:15:06;94.97;;;31.47;;
142;SDS011;63667;49.046;8.468;2024-02-28T07:17:34;102.10;;;32.20;;
142;SDS011;63667;49.046;8.468;2024-02-28T07:20:02;86.73;;;30.07;;
142;SDS011;63667;49.046;8.468;2024-02-28T07:22:30;83.53;;;28.83;;
142;SDS011;63667;49.046;8.468;2024-02-28T07:24:57;82.80;;;29.47;;
142;SDS011;63667;49.046;8.468;2024-02-28T07:27:25;94.23;;;27.53;;
142;SDS011;63667;49.046;8.468;2024-02-28T07:29:54;79.57;;;26.80;;
142;SDS011;63667;49.046;8.468;2024-02-28T07:32:21;78.33;;;27.33;;
142;SDS011;63667;49.046;8.468;2024-02-28T07:34:49;89.63;;;30.43;;
142;SDS011;63667;49.046;8.468;2024-02-28T07:37:16;94.20;;;32.30;;
142;SDS011;63667;49.046;8.468;2024-02-28T07:39:44;97.67;;;32.40;;
142;SDS011;63667;49.046;8.468;2024-02-28T07:42:13;103.53;;;31.87;;
142;SDS011;63667;49.046;8.468;2024-02-28T07:44:40;101.30;;;32.80;;
142;SDS011;63667;49.046;8.468;2024-02-28T07:47:08;109.13;;;34.03;;
142;SDS011;63667;49.046;8.468;2024-02-28T07:49:35;110.50;;;34.70;;
142;SDS011;63667;49.046;8.468;2024-02-28T07:52:03;98.30;;;33.03;;
142;SDS011;63667;49.046;8.468;2024-02-28T07:54:31;98.10;;;32.83;;
142;SDS011;63667;49.046;8.468;2024-02-28T07:56:59;94.50;;;33.10;;
142;SDS011;63667;49.046;8.468;2024-02-28T07:59:26;96.67;;;32.63;;
142;SDS011;63667;49.046;8.468;2024-02-28T08:01:54;84.90;;;31.40;;
142;SDS011;63667;49.046;8.468;2024-02-28T08:04:21;95.63;;;31.33;;
142;SDS011;63667;49.046;8.468;2024-02-28T08:06:50;93.17;;;31.20;;
142;SDS011;63667;49.046;8.468;2024-02-28T08:09:17;93.37;;;32.50;;
142;SDS011;63667;49.046;8.468;2024-02-28T08:11:45;84.53;;;32.00;;
142;SDS011;63667;49.046;8.468;2024-02-28T08:14:12;86.17;;;30.77;;
142;SDS011;63667;49.046;8.468;2024-02-28T08:16:40;76.63;;;29.53;;
142;SDS011;63667;49.046;8.468;2024-02-28T08:19:08;73.53;;;30.03;;
142;SDS011;63667;49.046;8.468;2024-02-28T08:21:35;86.77;;;29.93;;
142;SDS011;63667;49.046;8.468;2024-02-28T08:24:03;93.57;;;30.80;;
142;SDS011;63667;49.046;8.468;2024-02-28T08:26:31;106.20;;;31.00;;
142;SDS011;63667;49.046;8.468;2024-02-28T08:28:59;91.03;;;30.10;;
142;SDS011;63667;49.046;8.468;2024-02-28T08:31:27;86.20;;;29.37;;
142;SDS011;63667;49.046;8.468;2024-02-28T08:33:55;80.03;;;29.27;;
142;SDS011;63667;49.046;8.468;2024-02-28T08:36:23;73.97;;;27.97;;
142;SDS011;63667;49.046;8.468;2024-02-28T08:38:51;71.33;;;28.10;;
142;SDS011;63667;49.046;8.468;2024-02-28T08:41:26;80.30;;;26.10;;
142;SDS011;63667;49.046;8.468;2024-02-28T08:43:53;68.97;;;27.80;;
142;SDS011;63667;49.046;8.468;2024-02-28T08:46:20;67.53;;;27.10;;
142;SDS011;63667;49.046;8.468;2024-02-28T08:48:48;69.83;;;26.83;;
142;SDS011;63667;49.046;8.468;2024-02-28T08:51:16;71.17;;;26.23;;
142;SDS011;63667;49.046;8.468;2024-02-28T08:53:43;59.03;;;24.10;;
142;SDS011;63667;49.046;8.468;2024-02-28T08:56:11;79.73;;;26.30;;
142;SDS011;63667;49.046;8.468;2024-02-28T08:58:39;63.00;;;26.40;;
142;SDS011;63667;49.046;8.468;2024-02-28T09:01:07;61.77;;;25.77;;
142;SDS011;63667;49.046;8.468;2024-02-28T09:03:35;73.00;;;27.83;;
142;SDS011;63667;49.046;8.468;2024-02-28T09:06:03;60.33;;;26.10;;
142;SDS011;63667;49.046;8.468;2024-02-28T09:08:32;62.73;;;25.43;;
142;SDS011;63667;49.046;8.468;2024-02-28T09:10:59;70.70;;;26.47;;
142;SDS011;63667;49.046;8.468;2024-02-28T09:13:27;64.60;;;25.30;;
142;SDS011;63667;49.046;8.468;2024-02-28T09:15:56;61.03;;;25.40;;
142;SDS011;63667;49.046;8.468;2024-02-28T09:18:23;63.50;;;25.13;;
142;SDS011;63667;49.046;8.468;2024-02-28T09:20:52;67.13;;;25.83;;
142;SDS011;63667;49.046;8.468;2024-02-28T09:23:19;64.43;;;26.73;;
142;SDS011;63667;49.046;8.468;2024-02-28T09:25:47;60.47;;;25.67;;
142;SDS011;63667;49.046;8.468;2024-02-28T09:28:15;66.27;;;26.97;;
142;SDS011;63667;49.046;8.468;2024-02-28T09:30:43;67.13;;;25.80;;
142;SDS011;63667;49.046;8.468;2024-02-28T09:33:13;64.20;;;26.00;;
142;SDS011;63667;49.046;8.468;2024-02-28T09:35:41;65.30;;;26.20;;
142;SDS011;63667;49.046;8.468;2024-02-28T09:38:08;75.30;;;26.13;;
142;SDS011;63667;49.046;8.468;2024-02-28T09:40:35;62.00;;;24.10;;
142;SDS011;63667;49.046;8.468;2024-02-28T09:43:05;61.53;;;25.23;;
142;SDS011;63667;49.046;8.468;2024-02-28T09:45:32;54.50;;;24.27;;
142;SDS011;63667;49.046;8.468;2024-02-28T09:48:01;54.87;;;23.03;;
142;SDS011;63667;49.046;8.468;2024-02-28T09:50:29;54.40;;;24.80;;
142;SDS011;63667;49.046;8.468;2024-02-28T09:52:56;60.90;;;24.43;;
142;SDS011;63667;49.046;8.468;2024-02-28T09:55:24;59.97;;;24.50;;
142;SDS011;63667;49.046;8.468;2024-02-28T09:57:52;54.50;;;23.80;;
142;SDS011;63667;49.046;8.468;2024-02-28T10:00:20;55.90;;;23.50;;
142;SDS011;63667;49.046;8.468;2024-02-28T10:02:48;56.80;;;25.10;;
142;SDS011;63667;49.046;8.468;2024-02-28T10:05:17;50.77;;;23.27;;
142;SDS011;63667;49.046;8.468;2024-02-28T10:07:46;68.40;;;26.47;;
142;SDS011;63667;49.046;8.468;2024-02-28T10:10:13;52.33;;;23.27;;
142;SDS011;63667;49.046;8.468;2024-02-28T10:12:43;56.50;;;23.53;;
142;SDS011;63667;49.046;8.468;2024-02-28T10:15:10;53.23;;;23.43;;
142;SDS011;63667;49.046;8.468;2024-02-28T10:17:38;46.77;;;22.47;;
142;SDS011;63667;49.046;8.468;2024-02-28T10:20:06;51.57;;;23.67;;
142;SDS011;63667;49.046;8.468;2024-02-28T10:22:35;53.93;;;23.60;;
142;SDS011;63667;49.046;8.468;2024-02-28T10:25:03;53.27;;;24.13;;
142;SDS011;63667;49.046;8.468;2024-02-28T10:27:32;46.83;;;22.00;;
142;SDS011;63667;49.046;8.468;2024-02-28T10:30:00;46.30;;;21.67;;
142;SDS011;63667;49.046;8.468;2024-02-28T10:32:48;43.17;;;20.33;;
142;SDS011;63667;49.046;8.468;2024-02-28T10:35:19;40.53;;;19.37;;
142;SDS011;63667;49.046;8.468;2024-02-28T10:37:46;49.50;;;23.40;;
142;SDS011;63667;49.046;8.468;2024-02-28T10:40:14;44.23;;;22.33;;
142;SDS011;63667;49.046;8.468;2024-02-28T10:42:41;49.83;;;23.87;;
142;SDS011;63667;49.046;8.468;2024-02-28T10:45:09;39.30;;;18.80;;
142;SDS011;63667;49.046;8.468;2024-02-28T10:47:38;39.77;;;19.27;;
142;SDS011;63667;49.046;8.468;2024-02-28T10:50:05;39.83;;;19.17;;
142;SDS011;63667;49.046;8.468;2024-02-28T10:52:33;38.93;;;18.10;;
142;SDS011;63667;49.046;8.468;2024-02-28T10:55:02;38.77;;;18.23;;
142;SDS011;63667;49.046;8.468;2024-02-28T10:57:30;39.50;;;18.07;;
142;SDS011;63667;49.046;8.468;2024-02-28T10:59:58;42.90;;;20.43;;
142;SDS011;63667;49.046;8.468;2024-02-28T11:02:26;44.97;;;20.50;;
142;SDS011;63667;49.046;8.468;2024-02-28T11:04:54;38.03;;;18.73;;
142;SDS011;63667;49.046;8.468;2024-02-28T11:07:22;38.20;;;19.00;;
142;SDS011;63667;49.046;8.468;2024-02-28T11:09:54;34.43;;;17.77;;
142;SDS011;63667;49.046;8.468;2024-02-28T11:14:59;41.40;;;21.10;;
142;SDS011;63667;49.046;8.468;2024-02-28T11:17:28;36.17;;;20.20;;
142;SDS011;63667;49.046;8.468;2024-02-28T11:19:55;40.30;;;20.13;;
142;SDS011;63667;49.046;8.468;2024-02-28T11:22:21;38.50;;;20.80;;
142;SDS011;63667;49.046;8.468;2024-02-28T11:24:49;39.47;;;19.27;;
142;SDS011;63667;49.046;8.468;2024-02-28T11:27:17;41.77;;;20.33;;
142;SDS011;63667;49.046;8.468;2024-02-28T11:29:44;36.00;;;18.33;;
142;SDS011;63667;49.046;8.468;2024-02-28T11:32:13;36.60;;;17.87;;
142;SDS011;63667;49.046;8.468;2024-02-28T11:34:42;37.47;;;17.23;;
142;SDS011;63667;49.046;8.468;2024-02-28T11:37:11;32.57;;;17.13;;
142;SDS011;63667;49.046;8.468;2024-02-28T11:39:38;36.97;;;17.10;;
142;SDS011;63667;49.046;8.468;2024-02-28T11:42:09;31.80;;;17.13;;
142;SDS011;63667;49.046;8.468;2024-02-28T11:44:36;31.50;;;16.23;;
142;SDS011;63667;49.046;8.468;2024-02-28T11:47:04;38.87;;;17.97;;
142;SDS011;63667;49.046;8.468;2024-02-28T11:49:32;33.03;;;17.50;;
142;SDS011;63667;49.046;8.468;2024-02-28T11:52:00;29.90;;;17.30;;
142;SDS011;63667;49.046;8.468;2024-02-28T11:54:27;33.83;;;19.03;;
142;SDS011;63667;49.046;8.468;2024-02-28T11:56:55;33.07;;;18.97;;
142;SDS011;63667;49.046;8.468;2024-02-28T11:59:22;32.97;;;18.67;;
142;SDS011;63667;49.046;8.468;2024-02-28T12:01:50;32.53;;;18.83;;
142;SDS011;63667;49.046;8.468;2024-02-28T12:04:18;41.93;;;19.90;;
142;SDS011;63667;49.046;8.468;2024-02-28T12:06:45;30.87;;;19.00;;
142;SDS011;63667;49.046;8.468;2024-02-28T12:09:12;33.60;;;20.03;;
142;SDS011;63667;49.046;8.468;2024-02-28T12:11:42;34.90;;;18.70;;
142;SDS011;63667;49.046;8.468;2024-02-28T12:14:10;34.90;;;18.83;;
142;SDS011;63667;49.046;8.468;2024-02-28T12:16:39;28.90;;;17.50;;
142;SDS011;63667;49.046;8.468;2024-02-28T12:19:11;32.50;;;19.07;;
142;SDS011;63667;49.046;8.468;2024-02-28T12:21:39;28.13;;;17.43;;
142;SDS011;63667;49.046;8.468;2024-02-28T12:24:08;27.60;;;17.63;;
142;SDS011;63667;49.046;8.468;2024-02-28T12:26:38;30.30;;;18.53;;
142;SDS011;63667;49.046;8.468;2024-02-28T12:29:05;31.03;;;18.57;;
142;SDS011;63667;49.046;8.468;2024-02-28T12:31:32;34.20;;;18.30;;
142;SDS011;63667;49.046;8.468;2024-02-28T12:34:00;27.03;;;16.33;;
142;SDS011;63667;49.046;8.468;2024-02-28T12:36:30;24.63;;;15.87;;
142;SDS011;63667;49.046;8.468;2024-02-28T12:38:58;23.77;;;16.00;;
142;SDS011;63667;49.046;8.468;2024-02-28T12:41:28;25.83;;;15.80;;
142;SDS011;63667;49.046;8.468;2024-02-28T12:43:56;29.93;;;15.67;;
142;SDS011;63667;49.046;8.468;2024-02-28T12:46:24;24.47;;;15.03;;
142;SDS011;63667;49.046;8.468;2024-02-28T12:48:52;25.30;;;16.27;;
142;SDS011;63667;49.046;8.468;2024-02-28T12:54:06;24.17;;;15.70;;
142;SDS011;63667;49.046;8.468;2024-02-28T12:56:36;22.07;;;14.67;;
142;SDS011;63667;49.046;8.468;2024-02-28T12:59:04;22.60;;;14.47;;
142;SDS011;63667;49.046;8.468;2024-02-28T13:01:35;23.83;;;15.17;;
142;SDS011;63667;49.046;8.468;2024-02-28T13:04:02;23.50;;;14.80;;
142;SDS011;63667;49.046;8.468;2024-02-28T13:06:29;25.17;;;16.13;;
142;SDS011;63667;49.046;8.468;2024-02-28T13:08:56;23.00;;;14.90;;
142;SDS011;63667;49.046;8.468;2024-02-28T13:11:24;23.77;;;15.67;;
142;SDS011;63667;49.046;8.468;2024-02-28T13:13:51;24.60;;;14.67;;
142;SDS011;63667;49.046;8.468;2024-02-28T13:16:19;21.73;;;15.93;;
142;SDS011;63667;49.046;8.468;2024-02-28T13:18:47;23.43;;;15.33;;
142;SDS011;63667;49.046;8.468;2024-02-28T13:21:15;20.60;;;14.60;;
142;SDS011;63667;49.046;8.468;2024-02-28T13:23:43;20.43;;;14.10;;
142;SDS011;63667;49.046;8.468;2024-02-28T13:26:11;21.10;;;14.80;;
142;SDS011;63667;49.046;8.468;2024-02-28T13:28:43;19.90;;;14.53;;
142;SDS011;63667;49.046;8.468;2024-02-28T13:31:10;21.20;;;15.43;;
142;SDS011;63667;49.046;8.468;2024-02-28T13:33:38;21.47;;;14.47;;
142;SDS011;63667;49.046;8.468;2024-02-28T13:36:07;22.30;;;15.60;;
142;SDS011;63667;49.046;8.468;2024-02-28T13:38:35;23.77;;;15.47;;
142;SDS011;63667;49.046;8.468;2024-02-28T13:41:03;24.40;;;15.80;;
142;SDS011;63667;49.046;8.468;2024-02-28T13:43:31;23.60;;;15.10;;
142;SDS011;63667;49.046;8.468;2024-02-28T13:45:58;23.57;;;15.60;;
142;SDS011;63667;49.046;8.468;2024-02-28T13:48:30;23.07;;;15.70;;
142;SDS011;63667;49.046;8.468;2024-02-28T13:50:59;22.40;;;15.83;;
142;SDS011;63667;49.046;8.468;2024-02-28T13:53:26;20.57;;;13.60;;
142;SDS011;63667;49.046;8.468;2024-02-28T13:55:54;18.90;;;14.40;;
142;SDS011;63667;49.046;8.468;2024-02-28T13:58:21;31.37;;;17.07;;
142;SDS011;63667;49.046;8.468;2024-02-28T14:00:49;21.90;;;14.80;;
142;SDS011;63667;49.046;8.468;2024-02-28T14:03:17;23.80;;;14.87;;
142;SDS011;63667;49.046;8.468;2024-02-28T14:05:44;19.57;;;14.23;;
142;SDS011;63667;49.046;8.468;2024-02-28T14:08:13;21.57;;;14.20;;
142;SDS011;63667;49.046;8.468;2024-02-28T14:10:41;28.43;;;15.93;;
142;SDS011;63667;49.046;8.468;2024-02-28T14:13:11;26.97;;;16.03;;
142;SDS011;63667;49.046;8.468;2024-02-28T14:15:38;21.33;;;13.60;;
142;SDS011;63667;49.046;8.468;2024-02-28T14:18:05;21.83;;;14.03;;
142;SDS011;63667;49.046;8.468;2024-02-28T14:20:34;22.40;;;13.07;;
142;SDS011;63667;49.046;8.468;2024-02-28T14:23:02;20.57;;;13.10;;
142;SDS011;63667;49.046;8.468;2024-02-28T14:25:31;23.10;;;13.77;;
142;SDS011;63667;49.046;8.468;2024-02-28T14:27:59;21.73;;;13.50;;
142;SDS011;63667;49.046;8.468;2024-02-28T14:30:26;21.23;;;13.20;;
142;SDS011;63667;49.046;8.468;2024-02-28T14:32:54;23.07;;;14.30;;
142;SDS011;63667;49.046;8.468;2024-02-28T14:35:21;22.23;;;14.00;;
142;SDS011;63667;49.046;8.468;2024-02-28T14:37:49;26.20;;;13.27;;
142;SDS011;63667;49.046;8.468;2024-02-28T14:40:18;21.60;;;13.20;;
142;SDS011;63667;49.046;8.468;2024-02-28T14:42:46;25.67;;;13.67;;
142;SDS011;63667;49.046;8.468;2024-02-28T14:45:13;21.97;;;13.40;;
142;SDS011;63667;49.046;8.468;2024-02-28T14:47:45;20.33;;;12.60;;
142;SDS011;63667;49.046;8.468;2024-02-28T14:50:11;23.20;;;12.57;;
142;SDS011;63667;49.046;8.468;2024-02-28T14:52:39;22.53;;;13.20;;
142;SDS011;63667;49.046;8.468;2024-02-28T14:55:07;20.03;;;12.97;;